createdAt,value
2017-04-25T00:00:24.868Z,3.35
2017-04-25T00:01:25.942Z,3.40
2017-04-25T00:02:25.088Z,3.67
2017-04-25T00:03:24.523Z,4.97
2017-04-25T00:04:23.640Z,3.57
2017-04-25T00:05:22.779Z,7.42
2017-04-25T00:06:22.635Z,8.67
2017-04-25T00:07:21.771Z,6.08
2017-04-25T00:08:20.891Z,6.82
2017-04-25T00:09:20.015Z,4.82
2017-04-25T00:10:19.166Z,4.72
2017-04-25T00:11:18.291Z,3.92
2017-04-25T00:12:18.171Z,3.75
2017-04-25T00:13:18.275Z,4.35
2017-04-25T00:14:17.420Z,4.68
2017-04-25T00:15:16.565Z,4.37
2017-04-25T00:16:15.697Z,3.60
2017-04-25T00:17:14.871Z,3.48
2017-04-25T00:18:14.740Z,3.58
2017-04-25T00:19:13.864Z,4.15
2017-04-25T00:20:13.064Z,3.95
2017-04-25T00:21:12.183Z,4.10
2017-04-25T00:22:11.299Z,3.83
2017-04-25T00:23:10.431Z,3.83
2017-04-25T00:24:09.560Z,4.00
2017-04-25T00:25:08.683Z,3.78
2017-04-25T00:26:07.807Z,3.30
2017-04-25T00:27:06.939Z,3.38
2017-04-25T00:28:06.819Z,4.00
2017-04-25T00:29:05.943Z,3.72
2017-04-25T00:30:05.123Z,3.43
2017-04-25T00:31:04.991Z,3.05
2017-04-25T00:32:04.116Z,3.18
2017-04-25T00:33:04.009Z,3.03
2017-04-25T00:34:03.944Z,3.03
2017-04-25T00:35:03.073Z,3.05
2017-04-25T00:36:02.211Z,4.28
2017-04-25T00:37:01.331Z,5.10
2017-04-25T00:38:00.530Z,3.77
2017-04-25T00:38:59.664Z,2.83
2017-04-25T00:39:58.792Z,2.90
2017-04-25T00:40:57.910Z,3.27
2017-04-25T00:41:57.772Z,3.82
2017-04-25T00:42:56.895Z,3.75
2017-04-25T00:43:56.027Z,4.13
2017-04-25T00:44:55.151Z,3.45
2017-04-25T00:45:54.267Z,4.27
2017-04-25T00:46:54.132Z,6.13
2017-04-25T00:47:53.252Z,4.12
2017-04-25T00:48:53.132Z,3.97
2017-04-25T00:49:52.259Z,4.88
2017-04-25T00:50:51.387Z,3.33
2017-04-25T00:51:50.515Z,3.13
2017-04-25T00:52:50.379Z,3.22
2017-04-25T00:53:49.492Z,3.27
2017-04-25T00:54:48.631Z,4.15
2017-04-25T00:55:47.745Z,5.43
2017-04-25T00:56:46.874Z,4.82
2017-04-25T00:57:45.995Z,3.52
2017-04-25T00:58:45.095Z,4.13
2017-04-25T00:59:44.215Z,3.98
2017-04-25T01:00:44.151Z,3.87
2017-04-25T01:01:43.255Z,4.18
2017-04-25T01:02:42.360Z,3.35
2017-04-25T01:03:41.462Z,4.42
2017-04-25T01:04:40.625Z,4.60
2017-04-25T01:05:39.795Z,3.47
2017-04-25T01:06:38.903Z,3.40
2017-04-25T01:07:38.016Z,4.10
2017-04-25T01:08:37.867Z,3.22
2017-04-25T01:09:37.039Z,4.40
2017-04-25T01:10:36.159Z,3.78
2017-04-25T01:11:35.359Z,4.42
2017-04-25T01:12:34.484Z,3.28
2017-04-25T01:13:34.327Z,3.58
2017-04-25T01:14:33.437Z,4.05
2017-04-25T01:15:32.555Z,3.50
2017-04-25T01:16:32.427Z,3.33
2017-04-25T01:17:31.535Z,3.83
2017-04-25T01:18:31.376Z,4.12
2017-04-25T01:19:30.491Z,4.20
2017-04-25T01:20:29.620Z,3.38
2017-04-25T01:21:29.539Z,5.17
2017-04-25T01:22:28.643Z,3.80
2017-04-25T01:23:27.775Z,2.95
2017-04-25T01:24:26.880Z,4.05
2017-04-25T01:25:26.735Z,5.48
2017-04-25T01:26:25.853Z,4.95
2017-04-25T01:27:25.019Z,4.50
2017-04-25T01:28:24.118Z,4.55
2017-04-25T01:29:23.983Z,3.75
2017-04-25T01:30:23.099Z,3.93
2017-04-25T01:31:22.223Z,4.02
2017-04-25T01:32:21.356Z,3.67
2017-04-25T01:33:20.459Z,3.67
2017-04-25T01:34:19.568Z,4.03
2017-04-25T01:35:19.420Z,3.88
2017-04-25T01:36:18.547Z,3.70
2017-04-25T01:37:18.395Z,3.92
2017-04-25T01:38:17.516Z,3.93
2017-04-25T01:39:16.639Z,4.57
2017-04-25T01:40:16.493Z,3.88
2017-04-25T01:41:15.599Z,2.97
2017-04-25T01:42:14.724Z,4.30
2017-04-25T01:43:13.828Z,4.15
2017-04-25T01:44:12.945Z,4.50
2017-04-25T01:45:12.066Z,4.02
2017-04-25T01:46:11.908Z,4.30
2017-04-25T01:47:11.031Z,4.72
2017-04-25T01:48:10.782Z,4.38
2017-04-25T01:49:09.890Z,5.40
2017-04-25T01:50:08.991Z,4.48
2017-04-25T01:51:08.119Z,4.52
2017-04-25T01:52:07.246Z,5.65
2017-04-25T01:53:06.384Z,6.35
2017-04-25T01:54:06.303Z,5.33
2017-04-25T01:55:05.424Z,5.48
2017-04-25T01:56:04.548Z,6.02
2017-04-25T01:57:04.533Z,5.37
2017-04-25T01:58:03.656Z,5.77
2017-04-25T01:59:02.799Z,7.00
2017-04-25T02:00:01.920Z,6.05
2017-04-25T02:01:01.787Z,5.50
2017-04-25T02:02:00.908Z,4.90
2017-04-25T02:03:00.855Z,5.63
2017-04-25T02:04:00.033Z,5.78
2017-04-25T02:04:59.146Z,4.60
2017-04-25T02:05:58.276Z,6.65
2017-04-25T02:06:58.148Z,5.72
2017-04-25T02:07:58.234Z,5.52
2017-04-25T02:08:57.372Z,6.95
2017-04-25T02:09:57.259Z,6.33
2017-04-25T02:10:56.374Z,5.25
2017-04-25T02:11:55.491Z,5.53
2017-04-25T02:12:54.618Z,5.55
2017-04-25T02:13:53.772Z,7.28
2017-04-25T02:14:52.892Z,6.68
2017-04-25T02:15:52.011Z,6.23
2017-04-25T02:16:51.131Z,6.63
2017-04-25T02:17:50.256Z,7.00
2017-04-25T02:18:50.165Z,6.28
2017-04-25T02:19:50.107Z,6.37
2017-04-25T02:20:49.229Z,5.93
2017-04-25T02:21:48.346Z,5.00
2017-04-25T02:22:48.215Z,5.57
2017-04-25T02:23:47.331Z,4.62
2017-04-25T02:24:47.220Z,5.73
2017-04-25T02:25:46.655Z,4.72
2017-04-25T02:26:45.780Z,5.10
2017-04-25T02:27:44.899Z,4.97
2017-04-25T02:28:44.755Z,4.60
2017-04-25T02:29:43.924Z,4.97
2017-04-25T02:30:43.078Z,5.30
2017-04-25T02:31:42.943Z,5.80
2017-04-25T02:32:42.112Z,5.32
2017-04-25T02:33:41.233Z,5.13
2017-04-25T02:34:40.352Z,5.00
2017-04-25T02:35:39.491Z,5.37
2017-04-25T02:36:38.607Z,4.12
2017-04-25T02:37:38.467Z,4.72
2017-04-25T02:38:37.593Z,4.88
2017-04-25T02:39:37.451Z,6.13
2017-04-25T02:40:36.762Z,4.60
2017-04-25T02:41:35.876Z,5.53
2017-04-25T02:42:35.741Z,4.63
2017-04-25T02:43:34.862Z,4.87
2017-04-25T02:44:34.727Z,5.35
2017-04-25T02:45:33.848Z,4.70
2017-04-25T02:46:32.984Z,4.47
2017-04-25T02:47:32.124Z,4.93
2017-04-25T02:48:31.993Z,4.62
2017-04-25T02:49:31.142Z,4.25
2017-04-25T02:50:30.265Z,4.25
2017-04-25T02:51:29.447Z,4.57
2017-04-25T02:52:28.571Z,4.50
2017-04-25T02:53:28.556Z,4.03
2017-04-25T02:54:27.663Z,4.37
2017-04-25T02:55:27.699Z,4.70
2017-04-25T02:56:26.850Z,4.20
2017-04-25T02:57:25.971Z,5.00
2017-04-25T02:58:25.096Z,4.88
2017-04-25T02:59:24.209Z,4.22
2017-04-25T03:00:23.336Z,4.52
2017-04-25T03:01:22.539Z,4.72
2017-04-25T03:02:21.675Z,4.55
2017-04-25T03:03:21.543Z,3.92
2017-04-25T03:04:20.700Z,4.02
2017-04-25T03:05:19.827Z,4.62
2017-04-25T03:06:18.952Z,4.38
2017-04-25T03:07:18.832Z,3.88
2017-04-25T03:08:17.947Z,4.72
2017-04-25T03:09:17.071Z,4.13
2017-04-25T03:10:16.191Z,4.05
2017-04-25T03:11:15.311Z,4.45
2017-04-25T03:12:14.440Z,4.50
2017-04-25T03:13:13.563Z,4.67
2017-04-25T03:14:13.423Z,4.75
2017-04-25T03:15:12.543Z,4.20
2017-04-25T03:16:11.651Z,4.70
2017-04-25T03:17:10.783Z,4.45
2017-04-25T03:18:09.912Z,5.05
2017-04-25T03:19:09.771Z,4.70
2017-04-25T03:20:08.954Z,4.13
2017-04-25T03:21:08.067Z,4.68
2017-04-25T03:22:07.231Z,3.87
2017-04-25T03:23:06.344Z,3.57
2017-04-25T03:24:05.480Z,4.62
2017-04-25T03:25:04.631Z,4.23
2017-04-25T03:26:04.515Z,3.80
2017-04-25T03:27:03.641Z,3.97
2017-04-25T03:28:02.791Z,3.88
2017-04-25T03:29:01.906Z,3.48
2017-04-25T03:30:01.048Z,3.78
2017-04-25T03:31:00.162Z,5.00
2017-04-25T03:32:00.023Z,3.85
2017-04-25T03:32:59.145Z,3.90
2017-04-25T03:33:59.020Z,3.65
2017-04-25T03:34:58.135Z,5.32
2017-04-25T03:35:58.019Z,3.65
2017-04-25T03:36:57.139Z,4.20
2017-04-25T03:37:57.003Z,3.82
2017-04-25T03:38:56.148Z,4.78
2017-04-25T03:39:55.269Z,4.63
2017-04-25T03:40:54.395Z,3.50
2017-04-25T03:41:54.259Z,3.83
2017-04-25T03:42:53.376Z,5.12
2017-04-25T03:43:53.284Z,3.00
2017-04-25T03:44:53.144Z,4.30
2017-04-25T03:45:52.410Z,3.93
2017-04-25T03:46:51.567Z,3.58
2017-04-25T03:47:51.427Z,4.00
2017-04-25T03:48:50.555Z,4.33
2017-04-25T03:49:50.440Z,3.87
2017-04-25T03:50:49.555Z,4.20
2017-04-25T03:51:49.416Z,3.95
2017-04-25T03:52:48.559Z,3.65
2017-04-25T03:53:47.671Z,3.63
2017-04-25T03:54:46.879Z,3.28
2017-04-25T03:55:46.012Z,3.40
2017-04-25T03:56:45.119Z,5.03
2017-04-25T03:57:44.227Z,4.35
2017-04-25T03:58:43.329Z,4.03
2017-04-25T03:59:42.475Z,4.45
2017-04-25T04:00:41.587Z,3.65
2017-04-25T04:01:40.690Z,3.17
2017-04-25T04:02:39.788Z,3.42
2017-04-25T04:03:39.638Z,4.23
2017-04-25T04:04:38.755Z,3.67
2017-04-25T04:05:37.887Z,3.65
2017-04-25T04:06:36.998Z,3.53
2017-04-25T04:07:36.160Z,3.27
2017-04-25T04:08:35.352Z,3.85
2017-04-25T04:09:34.483Z,3.35
2017-04-25T04:10:33.614Z,4.00
2017-04-25T04:11:32.815Z,3.88
2017-04-25T04:12:32.068Z,3.67
2017-04-25T04:13:31.952Z,4.42
2017-04-25T04:14:31.059Z,3.97
2017-04-25T04:15:30.945Z,4.35
2017-04-25T04:16:30.047Z,4.27
2017-04-25T04:17:29.895Z,4.75
2017-04-25T04:18:28.999Z,3.57
2017-04-25T04:19:28.099Z,4.05
2017-04-25T04:20:27.203Z,3.38
2017-04-25T04:21:27.259Z,4.40
2017-04-25T04:22:26.381Z,4.50
2017-04-25T04:23:25.483Z,3.62
2017-04-25T04:24:25.328Z,4.02
2017-04-25T04:25:24.439Z,3.63
2017-04-25T04:26:23.583Z,4.15
2017-04-25T04:27:22.723Z,4.02
2017-04-25T04:28:21.833Z,3.40
2017-04-25T04:29:21.691Z,4.05
2017-04-25T04:30:20.901Z,3.42
2017-04-25T04:31:20.043Z,4.10
2017-04-25T04:32:19.147Z,3.75
2017-04-25T04:33:18.251Z,3.07
2017-04-25T04:34:17.356Z,3.55
2017-04-25T04:35:16.464Z,4.30
2017-04-25T04:36:16.319Z,3.92
2017-04-25T04:37:15.439Z,4.17
2017-04-25T04:38:14.546Z,4.20
2017-04-25T04:39:13.655Z,3.57
2017-04-25T04:40:12.765Z,3.67
2017-04-25T04:41:11.870Z,4.50
2017-04-25T04:42:10.999Z,4.45
2017-04-25T04:43:10.098Z,4.53
2017-04-25T04:44:09.213Z,4.07
2017-04-25T04:45:08.319Z,4.03
2017-04-25T04:46:07.423Z,3.65
2017-04-25T04:47:07.307Z,3.77
2017-04-25T04:48:06.411Z,3.68
2017-04-25T04:49:06.273Z,4.78
2017-04-25T04:50:05.386Z,3.90
2017-04-25T04:51:04.491Z,3.15
2017-04-25T04:52:04.339Z,4.10
2017-04-25T04:53:03.475Z,3.13
2017-04-25T04:54:03.327Z,3.02
2017-04-25T04:55:02.531Z,3.82
2017-04-25T04:56:01.631Z,3.37
2017-04-25T04:57:00.747Z,3.50
2017-04-25T04:57:59.872Z,3.00
2017-04-25T04:58:59.012Z,3.42
2017-04-25T04:59:58.895Z,3.45
2017-04-25T05:00:58.002Z,3.07
2017-04-25T05:01:58.123Z,3.60
2017-04-25T05:02:57.251Z,3.42
2017-04-25T05:03:56.365Z,3.92
2017-04-25T05:04:56.211Z,3.25
2017-04-25T05:05:55.313Z,4.85
2017-04-25T05:06:54.411Z,4.18
2017-04-25T05:07:53.519Z,5.73
2017-04-25T05:08:52.637Z,5.87
2017-04-25T05:09:51.743Z,7.25
2017-04-25T05:10:50.851Z,4.57
2017-04-25T05:11:49.960Z,3.73
2017-04-25T05:12:49.071Z,3.78
2017-04-25T05:13:48.946Z,4.35
2017-04-25T05:14:48.059Z,4.40
2017-04-25T05:15:47.920Z,4.88
2017-04-25T05:16:47.063Z,3.98
2017-04-25T05:17:46.172Z,4.45
2017-04-25T05:18:45.335Z,4.33
2017-04-25T05:19:44.439Z,4.45
2017-04-25T05:20:43.566Z,3.97
2017-04-25T05:21:42.667Z,4.05
2017-04-25T05:22:42.519Z,4.73
2017-04-25T05:23:41.629Z,4.82
2017-04-25T05:24:40.787Z,4.53
2017-04-25T05:25:40.002Z,4.23
2017-04-25T05:26:39.115Z,3.88
2017-04-25T05:27:38.983Z,4.53
2017-04-25T05:28:38.087Z,4.73
2017-04-25T05:29:37.258Z,3.47
2017-04-25T05:30:36.399Z,3.57
2017-04-25T05:31:35.541Z,3.92
2017-04-25T05:32:34.656Z,3.45
2017-04-25T05:33:34.528Z,4.37
2017-04-25T05:34:33.712Z,5.90
2017-04-25T05:35:32.823Z,5.45
2017-04-25T05:36:32.684Z,4.65
2017-04-25T05:37:31.803Z,3.17
2017-04-25T05:38:30.932Z,2.95
2017-04-25T05:39:30.043Z,3.15
2017-04-25T05:40:29.167Z,4.48
2017-04-25T05:41:28.287Z,3.70
2017-04-25T05:42:27.421Z,3.57
2017-04-25T05:43:26.539Z,4.13
2017-04-25T05:44:26.406Z,3.53
2017-04-25T05:45:25.560Z,4.13
2017-04-25T05:46:24.676Z,3.93
2017-04-25T05:47:23.865Z,4.25
2017-04-25T05:48:22.976Z,3.88
2017-04-25T05:49:22.836Z,4.18
2017-04-25T05:50:22.172Z,4.22
2017-04-25T05:51:22.040Z,4.43
2017-04-25T05:52:21.151Z,5.25
2017-04-25T05:53:20.288Z,4.93
2017-04-25T05:54:19.519Z,4.37
2017-04-25T05:55:18.697Z,4.60
2017-04-25T05:56:17.871Z,4.15
2017-04-25T05:57:16.995Z,4.87
2017-04-25T05:58:16.855Z,4.55
2017-04-25T05:59:15.983Z,4.65
2017-04-25T06:00:15.861Z,5.08
2017-04-25T06:01:14.987Z,4.40
2017-04-25T06:02:14.875Z,5.02
2017-04-25T06:03:14.741Z,6.15
2017-04-25T06:04:13.867Z,4.60
2017-04-25T06:05:13.731Z,4.83
2017-04-25T06:06:12.850Z,4.75
2017-04-25T06:07:11.994Z,5.27
2017-04-25T06:08:11.112Z,4.53
2017-04-25T06:09:10.227Z,5.55
2017-04-25T06:10:10.194Z,4.78
2017-04-25T06:11:09.319Z,5.48
2017-04-25T06:12:09.187Z,3.40
2017-04-25T06:13:08.328Z,5.35
2017-04-25T06:14:07.460Z,4.68
2017-04-25T06:15:06.582Z,4.85
2017-04-25T06:16:06.446Z,5.45
2017-04-25T06:17:05.751Z,4.58
2017-04-25T06:18:04.987Z,4.20
2017-04-25T06:19:04.127Z,5.05
2017-04-25T06:20:03.255Z,5.72
2017-04-25T06:21:02.383Z,5.23
2017-04-25T06:22:01.515Z,3.58
2017-04-25T06:23:00.673Z,3.97
2017-04-25T06:24:00.571Z,5.35
2017-04-25T06:24:59.704Z,4.47
2017-04-25T06:25:58.835Z,4.98
2017-04-25T06:26:57.955Z,4.83
2017-04-25T06:27:57.839Z,5.75
2017-04-25T06:28:56.984Z,5.28
2017-04-25T06:29:56.104Z,4.43
2017-04-25T06:30:55.223Z,6.58
2017-04-25T06:31:54.343Z,5.75
2017-04-25T06:32:53.466Z,5.27
2017-04-25T06:33:52.620Z,4.92
2017-04-25T06:34:51.747Z,4.32
2017-04-25T06:35:51.608Z,4.68
2017-04-25T06:36:50.732Z,3.75
2017-04-25T06:37:50.593Z,5.02
2017-04-25T06:38:49.716Z,5.23
2017-04-25T06:39:48.871Z,4.53
2017-04-25T06:40:47.987Z,5.08
2017-04-25T06:41:47.119Z,5.53
2017-04-25T06:42:46.919Z,7.88
2017-04-25T06:43:46.045Z,5.60
2017-04-25T06:44:45.223Z,4.98
2017-04-25T06:45:44.348Z,4.77
2017-04-25T06:46:44.220Z,5.37
2017-04-25T06:47:43.377Z,5.22
2017-04-25T06:48:42.597Z,5.50
2017-04-25T06:49:41.718Z,5.02
2017-04-25T06:50:41.689Z,4.45
2017-04-25T06:51:40.827Z,5.53
2017-04-25T06:52:39.952Z,5.65
2017-04-25T06:53:39.096Z,4.92
2017-04-25T06:54:38.216Z,4.45
2017-04-25T06:55:37.355Z,5.10
2017-04-25T06:56:37.223Z,4.73
2017-04-25T06:57:36.345Z,5.57
2017-04-25T06:58:35.471Z,5.78
2017-04-25T06:59:34.598Z,5.18
2017-04-25T07:00:33.735Z,5.15
2017-04-25T07:01:32.875Z,4.53
2017-04-25T07:02:40.488Z,4.25
2017-04-25T07:03:39.623Z,4.65
2017-04-25T07:04:38.759Z,6.20
2017-04-25T07:05:37.883Z,6.05
2017-04-25T07:06:37.062Z,4.92
2017-04-25T07:07:36.188Z,5.08
2017-04-25T07:08:35.319Z,6.40
2017-04-25T07:09:34.501Z,5.30
2017-04-25T07:10:33.639Z,5.25
2017-04-25T07:11:32.815Z,4.77
2017-04-25T07:12:31.935Z,5.15
2017-04-25T07:13:32.371Z,4.45
2017-04-25T07:14:31.508Z,4.27
2017-04-25T07:15:30.627Z,4.90
2017-04-25T07:16:30.493Z,5.63
2017-04-25T07:17:29.626Z,5.02
2017-04-25T07:18:28.819Z,5.52
2017-04-25T07:19:27.940Z,5.35
2017-04-25T07:20:27.062Z,5.55
2017-04-25T07:21:26.927Z,4.73
2017-04-25T07:22:26.067Z,5.87
2017-04-25T07:23:25.931Z,5.47
2017-04-25T07:24:25.051Z,5.22
2017-04-25T07:25:24.915Z,5.52
2017-04-25T07:26:24.039Z,5.47
2017-04-25T07:27:23.915Z,4.93
2017-04-25T07:28:23.040Z,4.75
2017-04-25T07:29:22.164Z,4.33
2017-04-25T07:30:21.291Z,5.42
2017-04-25T07:31:21.163Z,4.98
2017-04-25T07:32:20.363Z,4.80
2017-04-25T07:33:19.495Z,5.58
2017-04-25T07:34:18.620Z,4.92
2017-04-25T07:35:17.743Z,4.77
2017-04-25T07:36:17.652Z,4.53
2017-04-25T07:37:17.536Z,4.52
2017-04-25T07:38:16.679Z,4.65
2017-04-25T07:39:15.808Z,5.32
2017-04-25T07:40:15.087Z,3.95
2017-04-25T07:41:14.206Z,4.68
2017-04-25T07:42:14.072Z,3.60
2017-04-25T07:43:13.191Z,5.17
2017-04-25T07:44:13.064Z,4.82
2017-04-25T07:45:12.192Z,4.57
2017-04-25T07:46:11.315Z,4.07
2017-04-25T07:47:10.439Z,4.60
2017-04-25T07:48:09.575Z,5.42
2017-04-25T07:49:08.726Z,5.83
2017-04-25T07:50:08.587Z,5.25
2017-04-25T07:51:07.711Z,4.98
2017-04-25T07:52:07.619Z,4.73
2017-04-25T07:53:07.499Z,4.90
2017-04-25T07:54:06.615Z,5.33
2017-04-25T07:55:06.516Z,5.07
2017-04-25T07:56:06.403Z,4.17
2017-04-25T07:57:05.524Z,3.72
2017-04-25T07:58:04.644Z,5.42
2017-04-25T07:59:03.799Z,5.68
2017-04-25T08:00:02.934Z,4.53
2017-04-25T08:01:02.119Z,4.28
2017-04-25T08:02:01.244Z,5.37
2017-04-25T08:03:01.107Z,5.00
2017-04-25T08:04:00.235Z,5.57
2017-04-25T08:04:59.367Z,5.23
2017-04-25T08:05:58.516Z,5.27
2017-04-25T08:06:57.631Z,4.55
2017-04-25T08:07:56.755Z,4.57
2017-04-25T08:08:55.879Z,5.70
2017-04-25T08:09:55.112Z,6.15
2017-04-25T08:10:54.263Z,5.30
2017-04-25T08:11:53.394Z,6.15
2017-04-25T08:12:52.515Z,5.97
2017-04-25T08:13:51.711Z,5.55
2017-04-25T08:14:50.836Z,4.95
2017-04-25T08:15:50.032Z,5.78
2017-04-25T08:16:49.167Z,5.85
2017-04-25T08:17:48.293Z,5.43
2017-04-25T08:18:47.418Z,5.32
2017-04-25T08:19:47.355Z,4.98
2017-04-25T08:20:46.495Z,5.55
2017-04-25T08:21:45.626Z,5.92
2017-04-25T08:22:44.752Z,6.05
2017-04-25T08:23:43.875Z,6.33
2017-04-25T08:24:43.735Z,4.87
2017-04-25T08:25:42.851Z,5.12
2017-04-25T08:26:42.751Z,4.42
2017-04-25T08:27:41.864Z,5.93
2017-04-25T08:28:41.000Z,4.93
2017-04-25T08:29:40.123Z,5.90
2017-04-25T08:30:39.987Z,6.27
2017-04-25T08:31:39.103Z,5.90
2017-04-25T08:32:38.983Z,5.37
2017-04-25T08:33:38.108Z,7.37
2017-04-25T08:34:37.964Z,5.23
2017-04-25T08:35:37.159Z,5.30
2017-04-25T08:36:36.288Z,5.43
2017-04-25T08:37:35.456Z,5.63
2017-04-25T08:38:35.333Z,6.03
2017-04-25T08:39:34.873Z,7.28
2017-04-25T08:40:33.998Z,6.03
2017-04-25T08:41:33.119Z,5.85
2017-04-25T08:42:32.340Z,5.13
2017-04-25T08:43:31.466Z,5.27
2017-04-25T08:44:30.595Z,5.67
2017-04-25T08:45:30.456Z,6.22
2017-04-25T08:46:29.579Z,5.95
2017-04-25T08:47:29.458Z,5.63
2017-04-25T08:48:28.595Z,6.17
2017-04-25T08:49:27.735Z,6.35
2017-04-25T08:50:26.855Z,6.88
2017-04-25T08:51:25.980Z,6.35
2017-04-25T08:52:25.110Z,5.90
2017-04-25T08:53:25.029Z,6.18
2017-04-25T08:54:24.895Z,6.30
2017-04-25T08:55:24.020Z,5.28
2017-04-25T08:56:23.888Z,6.32
2017-04-25T08:57:23.012Z,6.90
2017-04-25T08:58:22.183Z,6.65
2017-04-25T08:59:22.053Z,6.95
2017-04-25T09:00:21.178Z,6.50
2017-04-25T09:01:21.043Z,6.48
2017-04-25T09:02:20.163Z,6.42
2017-04-25T09:03:20.027Z,7.17
2017-04-25T09:04:19.163Z,5.68
2017-04-25T09:05:19.027Z,5.53
2017-04-25T09:06:18.556Z,6.45
2017-04-25T09:07:18.472Z,6.30
2017-04-25T09:08:17.597Z,6.47
2017-04-25T09:09:16.755Z,6.83
2017-04-25T09:10:15.881Z,5.55
2017-04-25T09:11:15.000Z,6.62
2017-04-25T09:12:14.867Z,6.33
2017-04-25T09:13:14.080Z,6.60
2017-04-25T09:14:13.247Z,6.15
2017-04-25T09:15:12.382Z,5.98
2017-04-25T09:16:11.510Z,7.23
2017-04-25T09:17:10.640Z,6.57
2017-04-25T09:18:10.510Z,6.42
2017-04-25T09:19:09.637Z,7.22
2017-04-25T09:20:08.783Z,6.45
2017-04-25T09:21:07.923Z,7.15
2017-04-25T09:22:07.043Z,6.80
2017-04-25T09:23:06.163Z,5.80
2017-04-25T09:24:06.029Z,6.28
2017-04-25T09:25:05.168Z,8.05
2017-04-25T09:26:05.136Z,6.90
2017-04-25T09:27:04.252Z,6.62
2017-04-25T09:28:04.144Z,7.52
2017-04-25T09:29:03.272Z,7.15
2017-04-25T09:30:02.415Z,6.15
2017-04-25T09:31:01.536Z,6.52
2017-04-25T09:32:00.689Z,7.15
2017-04-25T09:32:59.808Z,6.40
2017-04-25T09:33:58.941Z,6.83
2017-04-25T09:34:58.064Z,7.83
2017-04-25T09:35:57.947Z,7.90
2017-04-25T09:36:57.087Z,6.80
2017-04-25T09:37:56.211Z,7.75
2017-04-25T09:38:55.344Z,7.80
2017-04-25T09:39:54.486Z,7.20
2017-04-25T09:40:53.918Z,7.85
2017-04-25T09:41:53.200Z,7.17
2017-04-25T09:42:52.328Z,7.47
2017-04-25T09:43:51.451Z,7.15
2017-04-25T09:44:50.571Z,6.70
2017-04-25T09:45:49.747Z,7.20
2017-04-25T09:46:49.606Z,7.73
2017-04-25T09:47:48.730Z,7.35
2017-04-25T09:48:48.602Z,7.00
2017-04-25T09:49:47.723Z,7.85
2017-04-25T09:50:46.860Z,8.93
2017-04-25T09:51:45.996Z,7.62
2017-04-25T09:52:45.859Z,7.68
2017-04-25T09:53:45.003Z,7.60
2017-04-25T09:54:44.136Z,7.02
2017-04-25T09:55:43.256Z,6.78
2017-04-25T09:56:43.195Z,7.15
2017-04-25T09:57:42.324Z,7.43
2017-04-25T09:58:41.459Z,7.63
2017-04-25T09:59:40.583Z,7.82
2017-04-25T10:00:39.716Z,7.78
2017-04-25T10:01:38.935Z,7.18
2017-04-25T10:02:38.073Z,7.38
2017-04-25T10:03:37.935Z,6.93
2017-04-25T10:04:37.131Z,6.20
2017-04-25T10:05:36.255Z,6.77
2017-04-25T10:06:36.222Z,7.03
2017-04-25T10:07:35.818Z,7.07
2017-04-25T10:08:35.517Z,7.57
2017-04-25T10:09:34.663Z,7.52
2017-04-25T10:10:33.817Z,6.77
2017-04-25T10:11:33.797Z,6.23
2017-04-25T10:12:32.931Z,7.13
2017-04-25T10:13:32.057Z,6.93
2017-04-25T10:14:31.227Z,7.25
2017-04-25T10:15:30.355Z,7.57
2017-04-25T10:16:29.483Z,7.80
2017-04-25T10:17:28.615Z,7.13
2017-04-25T10:18:27.743Z,7.77
2017-04-25T10:19:26.869Z,6.93
2017-04-25T10:20:25.995Z,7.17
2017-04-25T10:21:25.872Z,8.10
2017-04-25T10:22:25.083Z,6.60
2017-04-25T10:23:24.199Z,6.43
2017-04-25T10:24:23.336Z,6.40
2017-04-25T10:25:22.459Z,7.42
2017-04-25T10:26:22.332Z,6.80
2017-04-25T10:27:21.455Z,7.03
2017-04-25T10:28:20.603Z,6.43
2017-04-25T10:29:19.731Z,6.97
2017-04-25T10:30:18.859Z,6.83
2017-04-25T10:31:17.995Z,5.15
2017-04-25T10:32:17.859Z,5.42
2017-04-25T10:33:17.008Z,5.13
2017-04-25T10:34:16.132Z,6.48
2017-04-25T10:35:15.255Z,5.78
2017-04-25T10:36:15.223Z,5.42
2017-04-25T10:37:14.353Z,7.20
2017-04-25T10:38:13.492Z,5.55
2017-04-25T10:39:12.631Z,6.02
2017-04-25T10:40:11.747Z,5.05
2017-04-25T10:41:10.869Z,5.45
2017-04-25T10:42:09.999Z,5.25
2017-04-25T10:43:09.228Z,6.03
2017-04-25T10:44:08.368Z,6.32
2017-04-25T10:45:07.498Z,5.02
2017-04-25T10:46:06.623Z,5.23
2017-04-25T10:47:06.518Z,5.22
2017-04-25T10:48:05.631Z,4.45
2017-04-25T10:49:04.776Z,4.45
2017-04-25T10:50:03.895Z,3.87
2017-04-25T10:51:03.023Z,5.02
2017-04-25T10:52:02.155Z,4.57
2017-04-25T10:53:02.167Z,4.28
2017-04-25T10:54:02.028Z,4.45
2017-04-25T10:55:01.192Z,4.30
2017-04-25T10:56:00.315Z,4.15
2017-04-25T10:56:59.431Z,3.88
2017-04-25T10:57:59.304Z,4.07
2017-04-25T10:58:58.423Z,4.07
2017-04-25T10:59:57.591Z,4.02
2017-04-25T11:00:57.556Z,3.60
2017-04-25T11:01:56.687Z,4.02
2017-04-25T11:02:56.551Z,4.18
2017-04-25T11:03:55.699Z,3.93
2017-04-25T11:04:54.859Z,4.03
2017-04-25T11:05:54.732Z,4.25
2017-04-25T11:06:53.846Z,3.57
2017-04-25T11:07:53.736Z,3.73
2017-04-25T11:08:52.858Z,3.00
2017-04-25T11:09:51.980Z,3.62
2017-04-25T11:10:51.190Z,3.45
2017-04-25T11:11:50.319Z,4.02
2017-04-25T11:12:49.442Z,3.93
2017-04-25T11:13:48.564Z,2.88
2017-04-25T11:14:48.428Z,3.18
2017-04-25T11:15:47.585Z,3.25
2017-04-25T11:16:46.715Z,3.93
2017-04-25T11:17:45.840Z,3.22
2017-04-25T11:18:45.716Z,2.98
2017-04-25T11:19:44.843Z,3.08
2017-04-25T11:20:44.004Z,3.05
2017-04-25T11:21:43.875Z,3.05
2017-04-25T11:22:42.995Z,3.70
2017-04-25T11:23:42.863Z,3.28
2017-04-25T11:24:41.987Z,3.18
2017-04-25T11:25:41.851Z,3.03
2017-04-25T11:26:40.999Z,3.38
2017-04-25T11:27:40.296Z,4.07
2017-04-25T11:28:39.426Z,3.10
2017-04-25T11:29:38.559Z,2.78
2017-04-25T11:30:37.752Z,3.73
2017-04-25T11:31:36.891Z,2.75
2017-04-25T11:32:36.014Z,3.05
2017-04-25T11:33:35.140Z,3.93
2017-04-25T11:34:34.266Z,2.95
2017-04-25T11:35:34.155Z,3.63
2017-04-25T11:36:33.303Z,2.95
2017-04-25T11:37:32.424Z,3.55
2017-04-25T11:38:31.548Z,2.87
2017-04-25T11:39:30.691Z,3.30
2017-04-25T11:40:29.828Z,3.70
2017-04-25T11:41:28.965Z,3.60
2017-04-25T11:42:28.120Z,3.07
2017-04-25T11:43:27.243Z,3.10
2017-04-25T11:44:26.376Z,3.27
2017-04-25T11:45:25.503Z,3.23
2017-04-25T11:46:24.627Z,3.65
2017-04-25T11:47:24.511Z,3.50
2017-04-25T11:48:23.643Z,3.20
2017-04-25T11:49:22.767Z,3.40
2017-04-25T11:50:21.883Z,3.92
2017-04-25T11:51:21.750Z,3.78
2017-04-25T11:52:20.919Z,3.57
2017-04-25T11:53:20.104Z,3.97
2017-04-25T11:54:19.237Z,4.40
2017-04-25T11:55:18.387Z,3.23
2017-04-25T11:56:18.463Z,3.57
2017-04-25T11:57:17.948Z,3.42
2017-04-25T11:58:17.828Z,3.07
2017-04-25T11:59:17.695Z,3.80
2017-04-25T12:00:16.827Z,3.93
2017-04-25T12:01:16.699Z,4.15
2017-04-25T12:02:15.895Z,4.40
2017-04-25T12:03:15.036Z,3.85
2017-04-25T12:04:14.167Z,3.90
2017-04-25T12:05:13.291Z,3.68
2017-04-25T12:06:14.176Z,3.38
2017-04-25T12:07:13.303Z,3.60
2017-04-25T12:08:12.461Z,4.20
2017-04-25T12:09:11.584Z,3.60
2017-04-25T12:10:10.724Z,3.48
2017-04-25T12:11:09.859Z,4.02
2017-04-25T12:12:08.988Z,5.23
2017-04-25T12:13:08.107Z,3.90
2017-04-25T12:14:08.051Z,4.18
2017-04-25T12:15:07.243Z,4.15
2017-04-25T12:16:06.375Z,5.20
2017-04-25T12:17:05.499Z,4.45
2017-04-25T12:18:04.623Z,3.63
2017-04-25T12:19:03.767Z,4.33
2017-04-25T12:20:02.898Z,4.83
2017-04-25T12:21:02.044Z,4.73
2017-04-25T12:22:01.172Z,4.78
2017-04-25T12:23:00.295Z,4.27
2017-04-25T12:24:00.184Z,5.43
2017-04-25T12:24:59.307Z,5.27
2017-04-25T12:25:58.435Z,4.48
2017-04-25T12:26:57.578Z,4.30
2017-04-25T12:27:56.709Z,5.22
2017-04-25T12:28:55.856Z,4.12
2017-04-25T12:29:55.051Z,4.45
2017-04-25T12:30:54.218Z,4.95
2017-04-25T12:31:53.343Z,4.72
2017-04-25T12:32:52.496Z,4.47
2017-04-25T12:33:51.620Z,5.23
2017-04-25T12:34:50.764Z,4.60
2017-04-25T12:35:49.884Z,5.50
2017-04-25T12:36:49.011Z,6.43
2017-04-25T12:37:48.878Z,6.63
2017-04-25T12:38:48.000Z,4.98
2017-04-25T12:39:47.895Z,5.87
2017-04-25T12:40:47.012Z,5.87
2017-04-25T12:41:46.141Z,6.03
2017-04-25T12:42:45.267Z,6.28
2017-04-25T12:43:44.395Z,6.28
2017-04-25T12:44:43.515Z,6.97
2017-04-25T12:45:42.651Z,6.53
2017-04-25T12:46:41.787Z,7.23
2017-04-25T12:47:40.913Z,7.73
2017-04-25T12:48:40.043Z,6.58
2017-04-25T12:49:39.175Z,8.13
2017-04-25T12:50:39.147Z,10.67
2017-04-25T12:51:38.332Z,7.63
2017-04-25T12:52:37.471Z,7.77
2017-04-25T12:53:37.132Z,7.53
2017-04-25T12:54:36.263Z,8.23
2017-04-25T12:55:35.411Z,8.83
2017-04-25T12:56:34.559Z,7.20
2017-04-25T12:57:33.887Z,7.20
2017-04-25T12:58:33.770Z,8.42
2017-04-25T12:59:32.980Z,8.20
2017-04-25T13:00:32.103Z,8.25
2017-04-25T13:01:31.228Z,8.82
2017-04-25T13:02:30.372Z,9.80
2017-04-25T13:03:29.523Z,8.52
2017-04-25T13:04:28.656Z,9.33
2017-04-25T13:05:27.779Z,8.93
2017-04-25T13:06:26.911Z,8.98
2017-04-25T13:07:25.279Z,8.90
2017-04-25T13:08:24.412Z,9.25
2017-04-25T13:09:23.552Z,9.70